sensor_id;sensor_type;location;lat;lon;timestamp;pressure;altitude;pressure_sealevel;temperature;humidity
20983;BME280;10650;51.528;6.748;2022-10-16T00:01:29;100874.72;;;15.46;86.46
20983;BME280;10650;51.528;6.748;2022-10-16T00:03:58;100867.47;;;15.48;86.54
20983;BME280;10650;51.528;6.748;2022-10-16T00:06:31;100866.56;;;15.49;86.51
20983;BME280;10650;51.528;6.748;2022-10-16T00:08:59;100878.19;;;15.50;86.76
20983;BME280;10650;51.528;6.748;2022-10-16T00:11:29;100871.84;;;15.52;86.70
20983;BME280;10650;51.528;6.748;2022-10-16T00:14:01;100863.78;;;15.52;86.98
20983;BME280;10650;51.528;6.748;2022-10-16T00:16:30;100862.00;;;15.51;87.09
20983;BME280;10650;51.528;6.748;2022-10-16T00:18:57;100869.25;;;15.49;86.99
20983;BME280;10650;51.528;6.748;2022-10-16T00:21:28;100878.22;;;15.48;87.15
20983;BME280;10650;51.528;6.748;2022-10-16T00:23:57;100866.59;;;15.48;87.16
20983;BME280;10650;51.528;6.748;2022-10-16T00:26:27;100874.72;;;15.46;87.38
20983;BME280;10650;51.528;6.748;2022-10-16T00:28:55;100878.38;;;15.44;87.57
20983;BME280;10650;51.528;6.748;2022-10-16T00:31:24;100880.09;;;15.46;87.57
20983;BME280;10650;51.528;6.748;2022-10-16T00:33:52;100890.78;;;15.49;87.70
20983;BME280;10650;51.528;6.748;2022-10-16T00:36:22;100875.53;;;15.48;87.45
20983;BME280;10650;51.528;6.748;2022-10-16T00:38:52;100873.75;;;15.49;87.58
20983;BME280;10650;51.528;6.748;2022-10-16T00:41:23;100879.13;;;15.49;87.70
20983;BME280;10650;51.528;6.748;2022-10-16T00:43:52;100876.44;;;15.49;87.36
20983;BME280;10650;51.528;6.748;2022-10-16T00:46:23;100873.81;;;15.46;87.24
20983;BME280;10650;51.528;6.748;2022-10-16T00:48:55;100873.91;;;15.43;87.71
20983;BME280;10650;51.528;6.748;2022-10-16T00:51:30;100872.22;;;15.38;87.41
20983;BME280;10650;51.528;6.748;2022-10-16T00:54:02;100878.47;;;15.40;87.30
20983;BME280;10650;51.528;6.748;2022-10-16T00:56:31;100871.34;;;15.38;87.42
20983;BME280;10650;51.528;6.748;2022-10-16T00:59:01;100871.47;;;15.33;87.74
20983;BME280;10650;51.528;6.748;2022-10-16T01:01:31;100869.66;;;15.34;87.68
20983;BME280;10650;51.528;6.748;2022-10-16T01:03:58;100880.41;;;15.34;87.51
20983;BME280;10650;51.528;6.748;2022-10-16T01:06:32;100870.66;;;15.30;87.32
20983;BME280;10650;51.528;6.748;2022-10-16T01:09:12;100868.03;;;15.27;87.65
20983;BME280;10650;51.528;6.748;2022-10-16T01:11:45;100870.69;;;15.28;87.43
20983;BME280;10650;51.528;6.748;2022-10-16T01:14:22;100872.63;;;15.23;87.56
20983;BME280;10650;51.528;6.748;2022-10-16T01:16:59;100874.38;;;15.24;87.04
20983;BME280;10650;51.528;6.748;2022-10-16T01:19:56;100869.03;;;15.22;87.49
20983;BME280;10650;51.528;6.748;2022-10-16T01:22:38;100878.91;;;15.23;86.94
20983;BME280;10650;51.528;6.748;2022-10-16T01:25:14;100882.50;;;15.22;87.07
20983;BME280;10650;51.528;6.748;2022-10-16T01:27:46;100882.47;;;15.24;86.66
20983;BME280;10650;51.528;6.748;2022-10-16T01:30:18;100879.84;;;15.21;86.38
20983;BME280;10650;51.528;6.748;2022-10-16T01:32:50;100878.06;;;15.20;86.37
20983;BME280;10650;51.528;6.748;2022-10-16T01:35:23;100877.25;;;15.18;86.34
20983;BME280;10650;51.528;6.748;2022-10-16T01:37:55;100869.22;;;15.16;86.06
20983;BME280;10650;51.528;6.748;2022-10-16T01:40:27;100875.50;;;15.15;85.98
20983;BME280;10650;51.528;6.748;2022-10-16T01:43:00;100879.09;;;15.16;86.10
20983;BME280;10650;51.528;6.748;2022-10-16T01:45:31;100874.63;;;15.15;86.09
20983;BME280;10650;51.528;6.748;2022-10-16T01:48:00;100863.78;;;15.18;86.03
20983;BME280;10650;51.528;6.748;2022-10-16T01:50:31;100860.97;;;15.22;86.10
20983;BME280;10650;51.528;6.748;2022-10-16T01:53:01;100860.81;;;15.29;85.83
20983;BME280;10650;51.528;6.748;2022-10-16T01:55:35;100863.44;;;15.32;85.86
20983;BME280;10650;51.528;6.748;2022-10-16T01:58:04;100873.94;;;15.41;85.30
20983;BME280;10650;51.528;6.748;2022-10-16T02:00:36;100866.75;;;15.42;84.99
20983;BME280;10650;51.528;6.748;2022-10-16T02:03:05;100866.75;;;15.42;84.97
20983;BME280;10650;51.528;6.748;2022-10-16T02:05:37;100873.06;;;15.40;84.49
20983;BME280;10650;51.528;6.748;2022-10-16T02:08:08;100890.91;;;15.45;83.96
20983;BME280;10650;51.528;6.748;2022-10-16T02:10:36;100888.22;;;15.45;84.01
20983;BME280;10650;51.528;6.748;2022-10-16T02:13:10;100891.75;;;15.47;84.08
20983;BME280;10650;51.528;6.748;2022-10-16T02:15:39;100892.66;;;15.46;83.86
20983;BME280;10650;51.528;6.748;2022-10-16T02:18:07;100896.25;;;15.46;84.06
20983;BME280;10650;51.528;6.748;2022-10-16T02:20:48;100899.03;;;15.43;83.84
20983;BME280;10650;51.528;6.748;2022-10-16T02:23:22;100896.38;;;15.40;84.35
20983;BME280;10650;51.528;6.748;2022-10-16T02:25:52;100897.34;;;15.39;84.09
20983;BME280;10650;51.528;6.748;2022-10-16T02:28:25;100898.34;;;15.35;84.45
20983;BME280;10650;51.528;6.748;2022-10-16T02:31:03;100902.78;;;15.37;84.40
20983;BME280;10650;51.528;6.748;2022-10-16T02:33:32;100896.38;;;15.40;84.13
20983;BME280;10650;51.528;6.748;2022-10-16T02:36:02;100892.00;;;15.37;84.11
20983;BME280;10650;51.528;6.748;2022-10-16T02:38:30;100892.91;;;15.36;84.06
20983;BME280;10650;51.528;6.748;2022-10-16T02:40:58;100894.75;;;15.34;83.83
20983;BME280;10650;51.528;6.748;2022-10-16T02:43:28;100885.81;;;15.34;83.98
20983;BME280;10650;51.528;6.748;2022-10-16T02:45:55;100887.63;;;15.33;83.73
20983;BME280;10650;51.528;6.748;2022-10-16T02:48:23;100884.88;;;15.35;84.17
20983;BME280;10650;51.528;6.748;2022-10-16T02:50:51;100887.44;;;15.39;83.99
20983;BME280;10650;51.528;6.748;2022-10-16T02:53:19;100885.63;;;15.40;83.76
20983;BME280;10650;51.528;6.748;2022-10-16T02:55:46;100880.25;;;15.40;83.50
20983;BME280;10650;51.528;6.748;2022-10-16T02:58:14;100897.28;;;15.40;83.45
20983;BME280;10650;51.528;6.748;2022-10-16T03:00:43;100892.81;;;15.39;83.53
20983;BME280;10650;51.528;6.748;2022-10-16T03:03:11;100894.69;;;15.37;83.85
20983;BME280;10650;51.528;6.748;2022-10-16T03:05:39;100893.78;;;15.37;83.56
20983;BME280;10650;51.528;6.748;2022-10-16T03:08:06;100909.84;;;15.40;83.55
20983;BME280;10650;51.528;6.748;2022-10-16T03:10:34;100901.03;;;15.35;83.11
20983;BME280;10650;51.528;6.748;2022-10-16T03:13:02;100897.44;;;15.34;83.15
20983;BME280;10650;51.528;6.748;2022-10-16T03:15:30;100910.88;;;15.36;83.29
20983;BME280;10650;51.528;6.748;2022-10-16T03:17:59;100903.72;;;15.35;83.12
20983;BME280;10650;51.528;6.748;2022-10-16T03:20:27;100892.06;;;15.34;82.97
20983;BME280;10650;51.528;6.748;2022-10-16T03:22:55;100896.53;;;15.35;82.85
20983;BME280;10650;51.528;6.748;2022-10-16T03:25:22;100893.88;;;15.34;82.83
20983;BME280;10650;51.528;6.748;2022-10-16T03:27:50;100893.00;;;15.33;83.01
20983;BME280;10650;51.528;6.748;2022-10-16T03:30:18;100889.44;;;15.31;82.95
20983;BME280;10650;51.528;6.748;2022-10-16T03:32:46;100892.06;;;15.34;82.63
20983;BME280;10650;51.528;6.748;2022-10-16T03:35:15;100890.28;;;15.35;82.72
20983;BME280;10650;51.528;6.748;2022-10-16T03:37:43;100895.53;;;15.39;82.76
20983;BME280;10650;51.528;6.748;2022-10-16T03:40:11;100897.44;;;15.34;82.82
20983;BME280;10650;51.528;6.748;2022-10-16T03:42:39;100889.34;;;15.36;82.41
20983;BME280;10650;51.528;6.748;2022-10-16T03:45:07;100896.56;;;15.34;82.58
20983;BME280;10650;51.528;6.748;2022-10-16T03:47:35;100902.81;;;15.34;82.41
20983;BME280;10650;51.528;6.748;2022-10-16T03:50:04;100906.50;;;15.32;82.67
20983;BME280;10650;51.528;6.748;2022-10-16T03:52:33;100915.53;;;15.29;82.47
20983;BME280;10650;51.528;6.748;2022-10-16T03:55:01;100921.75;;;15.31;82.23
20983;BME280;10650;51.528;6.748;2022-10-16T03:57:28;100919.09;;;15.30;82.43
20983;BME280;10650;51.528;6.748;2022-10-16T03:59:56;100914.66;;;15.27;82.50
20983;BME280;10650;51.528;6.748;2022-10-16T04:02:24;100920.00;;;15.30;82.30
20983;BME280;10650;51.528;6.748;2022-10-16T04:04:52;100918.09;;;15.34;82.33
20983;BME280;10650;51.528;6.748;2022-10-16T04:07:20;100915.41;;;15.34;82.23
20983;BME280;10650;51.528;6.748;2022-10-16T04:09:49;100913.72;;;15.30;82.35
20983;BME280;10650;51.528;6.748;2022-10-16T04:12:18;100917.41;;;15.26;82.46
20983;BME280;10650;51.528;6.748;2022-10-16T04:14:46;100925.44;;;15.27;82.10
20983;BME280;10650;51.528;6.748;2022-10-16T04:17:13;100924.59;;;15.25;82.17
20983;BME280;10650;51.528;6.748;2022-10-16T04:19:41;100925.44;;;15.27;82.29
20983;BME280;10650;51.528;6.748;2022-10-16T04:22:09;100929.06;;;15.26;82.27
20983;BME280;10650;51.528;6.748;2022-10-16T04:24:37;100923.69;;;15.26;82.11
20983;BME280;10650;51.528;6.748;2022-10-16T04:27:06;100925.53;;;15.24;82.30
20983;BME280;10650;51.528;6.748;2022-10-16T04:29:33;100936.19;;;15.27;82.38
20983;BME280;10650;51.528;6.748;2022-10-16T04:32:01;100935.38;;;15.25;82.09
20983;BME280;10650;51.528;6.748;2022-10-16T04:34:29;100936.28;;;15.24;82.47
20983;BME280;10650;51.528;6.748;2022-10-16T04:36:57;100939.91;;;15.23;82.53
20983;BME280;10650;51.528;6.748;2022-10-16T04:39:24;100951.56;;;15.23;82.32
20983;BME280;10650;51.528;6.748;2022-10-16T04:41:52;100943.47;;;15.23;82.21
20983;BME280;10650;51.528;6.748;2022-10-16T04:44:21;100954.28;;;15.22;82.39
20983;BME280;10650;51.528;6.748;2022-10-16T04:46:50;100952.44;;;15.24;82.45
20983;BME280;10650;51.528;6.748;2022-10-16T04:49:24;100951.50;;;15.25;82.77
20983;BME280;10650;51.528;6.748;2022-10-16T04:51:51;100961.31;;;15.28;82.53
20983;BME280;10650;51.528;6.748;2022-10-16T04:54:19;100955.03;;;15.27;82.48
20983;BME280;10650;51.528;6.748;2022-10-16T04:56:47;100959.66;;;15.22;82.65
20983;BME280;10650;51.528;6.748;2022-10-16T04:59:17;100966.00;;;15.19;83.05
20983;BME280;10650;51.528;6.748;2022-10-16T05:01:46;100965.13;;;15.19;83.06
20983;BME280;10650;51.528;6.748;2022-10-16T05:04:15;100969.66;;;15.17;82.90
20983;BME280;10650;51.528;6.748;2022-10-16T05:06:43;100971.38;;;15.19;83.10
20983;BME280;10650;51.528;6.748;2022-10-16T05:09:11;100974.13;;;15.18;83.06
20983;BME280;10650;51.528;6.748;2022-10-16T05:11:39;100969.59;;;15.18;82.93
20983;BME280;10650;51.528;6.748;2022-10-16T05:14:06;100979.50;;;15.18;83.36
20983;BME280;10650;51.528;6.748;2022-10-16T05:16:34;100981.28;;;15.19;83.04
20983;BME280;10650;51.528;6.748;2022-10-16T05:19:03;100987.66;;;15.15;83.09
20983;BME280;10650;51.528;6.748;2022-10-16T05:21:51;100991.22;;;15.15;83.50
20983;BME280;10650;51.528;6.748;2022-10-16T05:24:18;100992.03;;;15.19;83.43
20983;BME280;10650;51.528;6.748;2022-10-16T05:26:46;101002.72;;;15.22;83.32
20983;BME280;10650;51.528;6.748;2022-10-16T05:29:14;100996.44;;;15.23;82.95
20983;BME280;10650;51.528;6.748;2022-10-16T05:31:42;100992.03;;;15.19;83.34
20983;BME280;10650;51.528;6.748;2022-10-16T05:34:11;101002.81;;;15.19;83.37
20983;BME280;10650;51.528;6.748;2022-10-16T05:36:38;101000.19;;;15.16;83.45
20983;BME280;10650;51.528;6.748;2022-10-16T05:39:06;101003.00;;;15.10;83.47
20983;BME280;10650;51.528;6.748;2022-10-16T05:41:34;101009.25;;;15.12;83.70
20983;BME280;10650;51.528;6.748;2022-10-16T05:44:04;101007.59;;;15.06;83.79
20983;BME280;10650;51.528;6.748;2022-10-16T05:46:32;101007.63;;;15.04;84.00
20983;BME280;10650;51.528;6.748;2022-10-16T05:49:00;101004.16;;;14.99;84.44
20983;BME280;10650;51.528;6.748;2022-10-16T05:51:30;101012.19;;;15.01;84.09
20983;BME280;10650;51.528;6.748;2022-10-16T05:53:57;101007.72;;;15.00;84.26
20983;BME280;10650;51.528;6.748;2022-10-16T05:56:25;101023.81;;;15.01;84.36
20983;BME280;10650;51.528;6.748;2022-10-16T05:58:53;101028.44;;;14.96;84.82
20983;BME280;10650;51.528;6.748;2022-10-16T06:01:21;101037.34;;;14.98;84.80
20983;BME280;10650;51.528;6.748;2022-10-16T06:03:50;101040.09;;;14.95;84.89
20983;BME280;10650;51.528;6.748;2022-10-16T06:06:20;101042.78;;;14.95;85.20
20983;BME280;10650;51.528;6.748;2022-10-16T06:08:52;101047.31;;;14.95;85.09
20983;BME280;10650;51.528;6.748;2022-10-16T06:11:21;101040.06;;;14.97;85.20
20983;BME280;10650;51.528;6.748;2022-10-16T06:13:50;101041.84;;;14.98;85.38
20983;BME280;10650;51.528;6.748;2022-10-16T06:16:19;101041.84;;;14.98;85.56
20983;BME280;10650;51.528;6.748;2022-10-16T06:18:47;101048.09;;;14.98;85.75
20983;BME280;10650;51.528;6.748;2022-10-16T06:21:17;101056.03;;;15.06;85.43
20983;BME280;10650;51.528;6.748;2022-10-16T06:23:49;101049.72;;;15.05;85.37
20983;BME280;10650;51.528;6.748;2022-10-16T06:26:20;101055.16;;;15.04;85.33
20983;BME280;10650;51.528;6.748;2022-10-16T06:28:49;101066.78;;;15.06;85.70
20983;BME280;10650;51.528;6.748;2022-10-16T06:31:17;101076.69;;;15.04;85.39
20983;BME280;10650;51.528;6.748;2022-10-16T06:33:45;101073.94;;;15.05;85.43
20983;BME280;10650;51.528;6.748;2022-10-16T06:36:14;101066.66;;;15.11;85.54
20983;BME280;10650;51.528;6.748;2022-10-16T06:38:44;101083.66;;;15.13;85.58
20983;BME280;10650;51.528;6.748;2022-10-16T06:41:15;101085.44;;;15.14;85.31
20983;BME280;10650;51.528;6.748;2022-10-16T06:43:43;101083.69;;;15.11;85.26
20983;BME280;10650;51.528;6.748;2022-10-16T06:46:13;101093.69;;;15.06;85.38
20983;BME280;10650;51.528;6.748;2022-10-16T06:48:41;101092.78;;;15.05;85.61
20983;BME280;10650;51.528;6.748;2022-10-16T06:51:11;101107.09;;;15.08;85.33
20983;BME280;10650;51.528;6.748;2022-10-16T06:53:42;101113.50;;;15.02;85.43
20983;BME280;10650;51.528;6.748;2022-10-16T06:56:30;101119.00;;;14.96;85.73
20983;BME280;10650;51.528;6.748;2022-10-16T06:58:58;101123.47;;;14.97;85.73
20983;BME280;10650;51.528;6.748;2022-10-16T07:01:26;101138.69;;;14.98;85.86
20983;BME280;10650;51.528;6.748;2022-10-16T07:03:55;101136.09;;;14.93;85.79
20983;BME280;10650;51.528;6.748;2022-10-16T07:06:24;101147.81;;;14.91;85.88
20983;BME280;10650;51.528;6.748;2022-10-16T07:08:53;101147.84;;;14.89;86.07
20983;BME280;10650;51.528;6.748;2022-10-16T07:11:22;101162.22;;;14.86;86.43
20983;BME280;10650;51.528;6.748;2022-10-16T07:13:52;101159.50;;;14.88;86.58
20983;BME280;10650;51.528;6.748;2022-10-16T07:16:23;101179.22;;;14.88;86.72
20983;BME280;10650;51.528;6.748;2022-10-16T07:18:53;101164.97;;;14.85;86.68
20983;BME280;10650;51.528;6.748;2022-10-16T07:21:25;101170.31;;;14.86;86.72
20983;BME280;10650;51.528;6.748;2022-10-16T07:23:56;101162.19;;;14.88;86.86
20983;BME280;10650;51.528;6.748;2022-10-16T07:26:25;101172.91;;;14.91;86.70
20983;BME280;10650;51.528;6.748;2022-10-16T07:28:55;101168.25;;;14.99;86.82
20983;BME280;10650;51.528;6.748;2022-10-16T07:31:23;101178.81;;;15.09;86.50
20983;BME280;10650;51.528;6.748;2022-10-16T07:33:51;101173.28;;;15.16;85.93
20983;BME280;10650;51.528;6.748;2022-10-16T07:36:20;101179.47;;;15.20;86.01
20983;BME280;10650;51.528;6.748;2022-10-16T07:38:48;101185.66;;;15.25;85.92
20983;BME280;10650;51.528;6.748;2022-10-16T07:41:20;101188.28;;;15.28;85.73
20983;BME280;10650;51.528;6.748;2022-10-16T07:43:49;101187.34;;;15.31;85.59
20983;BME280;10650;51.528;6.748;2022-10-16T07:46:19;101200.63;;;15.38;85.42
20983;BME280;10650;51.528;6.748;2022-10-16T07:48:47;101200.53;;;15.42;84.93
20983;BME280;10650;51.528;6.748;2022-10-16T07:51:17;101209.44;;;15.45;85.15
20983;BME280;10650;51.528;6.748;2022-10-16T07:53:45;101211.19;;;15.48;84.63
20983;BME280;10650;51.528;6.748;2022-10-16T07:56:14;101215.63;;;15.50;84.85
20983;BME280;10650;51.528;6.748;2022-10-16T07:58:42;101225.44;;;15.53;84.47
20983;BME280;10650;51.528;6.748;2022-10-16T08:01:11;101219.97;;;15.57;84.57
20983;BME280;10650;51.528;6.748;2022-10-16T08:03:42;101236.06;;;15.61;84.68
20983;BME280;10650;51.528;6.748;2022-10-16T08:06:10;101225.22;;;15.64;84.37
20983;BME280;10650;51.528;6.748;2022-10-16T08:08:38;101226.94;;;15.66;84.09
20983;BME280;10650;51.528;6.748;2022-10-16T08:11:06;101245.75;;;15.68;83.87
20983;BME280;10650;51.528;6.748;2022-10-16T08:13:34;101239.47;;;15.69;83.80
20983;BME280;10650;51.528;6.748;2022-10-16T08:16:02;101251.94;;;15.71;83.58
20983;BME280;10650;51.528;6.748;2022-10-16T08:18:34;101252.78;;;15.75;82.80
20983;BME280;10650;51.528;6.748;2022-10-16T08:21:07;101256.31;;;15.79;82.95
20983;BME280;10650;51.528;6.748;2022-10-16T08:23:36;101259.84;;;15.82;82.56
20983;BME280;10650;51.528;6.748;2022-10-16T08:26:06;101275.06;;;15.85;82.71
20983;BME280;10650;51.528;6.748;2022-10-16T08:28:34;101274.09;;;15.86;82.58
20983;BME280;10650;51.528;6.748;2022-10-16T08:31:07;101273.25;;;15.85;82.28
20983;BME280;10650;51.528;6.748;2022-10-16T08:33:36;101278.50;;;15.90;82.48
20983;BME280;10650;51.528;6.748;2022-10-16T08:36:05;101281.13;;;15.93;82.39
20983;BME280;10650;51.528;6.748;2022-10-16T08:38:34;101281.06;;;15.98;82.31
20983;BME280;10650;51.528;6.748;2022-10-16T08:44:27;101298.75;;;16.09;82.44
20983;BME280;10650;51.528;6.748;2022-10-16T08:47:02;101295.94;;;16.14;81.98
20983;BME280;10650;51.528;6.748;2022-10-16T08:49:36;101297.56;;;16.21;82.04
20983;BME280;10650;51.528;6.748;2022-10-16T08:52:12;101301.84;;;16.30;81.67
20983;BME280;10650;51.528;6.748;2022-10-16T08:54:43;101297.25;;;16.35;81.33
20983;BME280;10650;51.528;6.748;2022-10-16T08:57:14;101307.06;;;16.38;81.09
20983;BME280;10650;51.528;6.748;2022-10-16T08:59:48;101309.69;;;16.41;81.17
20983;BME280;10650;51.528;6.748;2022-10-16T09:02:23;101312.25;;;16.46;80.68
20983;BME280;10650;51.528;6.748;2022-10-16T09:05:02;101318.44;;;16.51;80.44
20983;BME280;10650;51.528;6.748;2022-10-16T09:07:35;101319.19;;;16.56;80.43
20983;BME280;10650;51.528;6.748;2022-10-16T09:10:16;101302.88;;;16.62;80.39
20983;BME280;10650;51.528;6.748;2022-10-16T09:12:52;101316.13;;;16.71;80.06
20983;BME280;10650;51.528;6.748;2022-10-16T09:15:29;101321.31;;;16.79;80.02
20983;BME280;10650;51.528;6.748;2022-10-16T09:18:06;101322.09;;;16.84;79.35
20983;BME280;10650;51.528;6.748;2022-10-16T09:20:44;101322.00;;;16.89;78.66
20983;BME280;10650;51.528;6.748;2022-10-16T09:23:19;101329.97;;;16.95;78.67
20983;BME280;10650;51.528;6.748;2022-10-16T09:25:49;101326.22;;;16.99;78.40
20983;BME280;10650;51.528;6.748;2022-10-16T09:28:18;101336.88;;;17.05;78.02
20983;BME280;10650;51.528;6.748;2022-10-16T09:30:47;101329.47;;;17.14;77.25
20983;BME280;10650;51.528;6.748;2022-10-16T09:33:17;101341.94;;;17.18;76.66
20983;BME280;10650;51.528;6.748;2022-10-16T09:35:47;101340.03;;;17.21;76.18
20983;BME280;10650;51.528;6.748;2022-10-16T09:38:25;101334.34;;;17.32;76.31
20983;BME280;10650;51.528;6.748;2022-10-16T09:40:55;101330.56;;;17.38;75.92
20983;BME280;10650;51.528;6.748;2022-10-16T09:43:32;101336.03;;;17.36;75.18
20983;BME280;10650;51.528;6.748;2022-10-16T09:46:04;101336.84;;;17.40;75.37
20983;BME280;10650;51.528;6.748;2022-10-16T09:48:36;101327.72;;;17.44;75.13
20983;BME280;10650;51.528;6.748;2022-10-16T09:51:06;101339.13;;;17.55;74.88
20983;BME280;10650;51.528;6.748;2022-10-16T09:53:45;101337.97;;;17.64;74.37
20983;BME280;10650;51.528;6.748;2022-10-16T09:56:22;101336.81;;;17.73;74.01
20983;BME280;10650;51.528;6.748;2022-10-16T09:58:51;101336.81;;;17.73;73.79
20983;BME280;10650;51.528;6.748;2022-10-16T10:01:19;101339.41;;;17.76;73.38
20983;BME280;10650;51.528;6.748;2022-10-16T10:03:48;101339.31;;;17.79;72.92
20983;BME280;10650;51.528;6.748;2022-10-16T10:06:20;101349.16;;;17.81;72.96
20983;BME280;10650;51.528;6.748;2022-10-16T10:08:59;101352.06;;;17.75;72.33
20983;BME280;10650;51.528;6.748;2022-10-16T10:11:42;101344.06;;;17.71;71.91
20983;BME280;10650;51.528;6.748;2022-10-16T10:14:20;101340.47;;;17.70;72.57
20983;BME280;10650;51.528;6.748;2022-10-16T10:16:48;101340.34;;;17.75;72.60
20983;BME280;10650;51.528;6.748;2022-10-16T10:19:17;101341.91;;;17.82;72.66
20983;BME280;10650;51.528;6.748;2022-10-16T10:21:46;101347.09;;;17.91;72.33
20983;BME280;10650;51.528;6.748;2022-10-16T10:24:16;101350.59;;;17.95;71.40
20983;BME280;10650;51.528;6.748;2022-10-16T10:26:50;101359.47;;;18.00;71.82
20983;BME280;10650;51.528;6.748;2022-10-16T10:29:28;101348.44;;;18.06;70.91
20983;BME280;10650;51.528;6.748;2022-10-16T10:32:07;101346.50;;;18.11;70.93
20983;BME280;10650;51.528;6.748;2022-10-16T10:35:12;101353.53;;;18.17;70.36
20983;BME280;10650;51.528;6.748;2022-10-16T10:37:55;101349.75;;;18.23;70.37
20983;BME280;10650;51.528;6.748;2022-10-16T10:40:37;101357.66;;;18.29;70.08
20983;BME280;10650;51.528;6.748;2022-10-16T10:43:16;101363.72;;;18.37;70.21
20983;BME280;10650;51.528;6.748;2022-10-16T10:45:47;101359.94;;;18.43;69.37
20983;BME280;10650;51.528;6.748;2022-10-16T10:48:32;101353.41;;;18.50;69.38
20983;BME280;10650;51.528;6.748;2022-10-16T10:51:11;101352.44;;;18.53;67.81
20983;BME280;10650;51.528;6.748;2022-10-16T10:53:46;101361.25;;;18.58;67.79
20983;BME280;10650;51.528;6.748;2022-10-16T10:56:34;101364.81;;;18.60;67.56
20983;BME280;10650;51.528;6.748;2022-10-16T11:02:14;101364.50;;;18.69;67.17
20983;BME280;10650;51.528;6.748;2022-10-16T11:05:14;101365.09;;;18.79;67.23
20983;BME280;10650;51.528;6.748;2022-10-16T11:07:49;101357.66;;;18.84;66.46
20983;BME280;10650;51.528;6.748;2022-10-16T11:10:22;101363.09;;;18.84;65.83
20983;BME280;10650;51.528;6.748;2022-10-16T11:12:58;101361.56;;;18.75;65.43
20983;BME280;10650;51.528;6.748;2022-10-16T11:15:30;101365.53;;;18.65;65.71
20983;BME280;10650;51.528;6.748;2022-10-16T11:18:04;101368.41;;;18.60;66.16
20983;BME280;10650;51.528;6.748;2022-10-16T11:20:34;101362.94;;;18.62;66.17
20983;BME280;10650;51.528;6.748;2022-10-16T11:23:10;101371.78;;;18.67;66.07
20983;BME280;10650;51.528;6.748;2022-10-16T11:25:39;101373.38;;;18.74;66.11
20983;BME280;10650;51.528;6.748;2022-10-16T11:28:11;101371.38;;;18.79;66.47
20983;BME280;10650;51.528;6.748;2022-10-16T11:30:44;101391.00;;;18.86;65.94
20983;BME280;10650;51.528;6.748;2022-10-16T11:33:25;101380.22;;;18.84;65.29
20983;BME280;10650;51.528;6.748;2022-10-16T11:36:03;101373.16;;;18.80;65.87
20983;BME280;10650;51.528;6.748;2022-10-16T11:38:37;101373.19;;;18.79;66.22
20983;BME280;10650;51.528;6.748;2022-10-16T11:41:19;101375.16;;;18.74;66.04
20983;BME280;10650;51.528;6.748;2022-10-16T11:44:13;101376.47;;;18.62;65.77
20983;BME280;10650;51.528;6.748;2022-10-16T11:46:51;101380.25;;;18.56;65.95
20983;BME280;10650;51.528;6.748;2022-10-16T11:49:36;101377.53;;;18.56;65.61
20983;BME280;10650;51.528;6.748;2022-10-16T11:52:10;101377.50;;;18.58;65.20
20983;BME280;10650;51.528;6.748;2022-10-16T11:54:47;101381.53;;;18.73;65.88
20983;BME280;10650;51.528;6.748;2022-10-16T11:57:20;101382.25;;;18.78;64.18
20983;BME280;10650;51.528;6.748;2022-10-16T11:59:55;101392.84;;;18.85;65.02
20983;BME280;10650;51.528;6.748;2022-10-16T12:02:40;101396.13;;;18.95;64.89
20983;BME280;10650;51.528;6.748;2022-10-16T12:05:22;101393.06;;;19.06;64.61
20983;BME280;10650;51.528;6.748;2022-10-16T12:07:57;101404.78;;;19.07;64.34
20983;BME280;10650;51.528;6.748;2022-10-16T12:10:30;101402.25;;;19.02;64.55
20983;BME280;10650;51.528;6.748;2022-10-16T12:13:29;101403.28;;;18.98;65.00
20983;BME280;10650;51.528;6.748;2022-10-16T12:16:07;101403.03;;;19.06;65.11
20983;BME280;10650;51.528;6.748;2022-10-16T12:18:48;101405.97;;;19.25;65.56
20983;BME280;10650;51.528;6.748;2022-10-16T12:21:17;101406.31;;;19.41;64.12
20983;BME280;10650;51.528;6.748;2022-10-16T12:23:48;101402.28;;;19.52;63.43
20983;BME280;10650;51.528;6.748;2022-10-16T12:26:24;101400.44;;;19.54;63.36
20983;BME280;10650;51.528;6.748;2022-10-16T12:28:52;101402.63;;;19.43;63.10
20983;BME280;10650;51.528;6.748;2022-10-16T12:31:22;101403.28;;;19.25;63.58
20983;BME280;10650;51.528;6.748;2022-10-16T12:33:57;101395.72;;;19.08;63.45
20983;BME280;10650;51.528;6.748;2022-10-16T12:36:28;101399.69;;;18.97;63.55
20983;BME280;10650;51.528;6.748;2022-10-16T12:38:57;101403.28;;;18.98;64.29
20983;BME280;10650;51.528;6.748;2022-10-16T12:41:27;101403.09;;;19.02;64.56
20983;BME280;10650;51.528;6.748;2022-10-16T12:43:56;101413.88;;;19.06;64.79
20983;BME280;10650;51.528;6.748;2022-10-16T12:46:38;101399.25;;;19.10;64.90
20983;BME280;10650;51.528;6.748;2022-10-16T12:49:23;101399.06;;;19.16;64.98
20983;BME280;10650;51.528;6.748;2022-10-16T12:51:56;101395.38;;;19.18;64.51
20983;BME280;10650;51.528;6.748;2022-10-16T12:54:28;101395.38;;;19.18;64.27
20983;BME280;10650;51.528;6.748;2022-10-16T12:57:00;101401.81;;;19.14;63.76
20983;BME280;10650;51.528;6.748;2022-10-16T12:59:39;101406.34;;;19.14;64.54
20983;BME280;10650;51.528;6.748;2022-10-16T13:02:32;101402.53;;;19.19;63.65
20983;BME280;10650;51.528;6.748;2022-10-16T13:05:15;101403.34;;;19.23;63.71
20983;BME280;10650;51.528;6.748;2022-10-16T13:07:56;101405.06;;;19.24;63.07
20983;BME280;10650;51.528;6.748;2022-10-16T13:10:35;101404.38;;;19.19;63.45
20983;BME280;10650;51.528;6.748;2022-10-16T13:13:18;101407.38;;;19.10;63.55
20983;BME280;10650;51.528;6.748;2022-10-16T13:15:58;101402.88;;;19.10;63.47
20983;BME280;10650;51.528;6.748;2022-10-16T13:18:40;101396.25;;;19.19;63.89
20983;BME280;10650;51.528;6.748;2022-10-16T13:21:19;101405.88;;;19.28;63.66